sensor_id;sensor_type;location;lat;lon;timestamp;pressure;altitude;pressure_sealevel;temperature;humidity
20228;BME280;12195;55.790;37.572;2023-04-25T00:02:20;99529.14;;;14.42;38.37
20228;BME280;12195;55.790;37.572;2023-04-25T00:04:53;99534.31;;;14.44;38.40
20228;BME280;12195;55.790;37.572;2023-04-25T00:07:27;99533.98;;;14.48;38.35
20228;BME280;12195;55.790;37.572;2023-04-25T00:09:59;99529.31;;;14.52;38.38
20228;BME280;12195;55.790;37.572;2023-04-25T00:12:32;99535.09;;;14.57;38.26
20228;BME280;12195;55.790;37.572;2023-04-25T00:15:05;99530.84;;;14.67;38.22
20228;BME280;12195;55.790;37.572;2023-04-25T00:17:37;99530.84;;;14.67;38.22
20228;BME280;12195;55.790;37.572;2023-04-25T00:20:10;99541.91;;;14.72;38.38
20228;BME280;12195;55.790;37.572;2023-04-25T00:22:43;99528.11;;;14.79;38.21
20228;BME280;12195;55.790;37.572;2023-04-25T00:25:15;99529.34;;;14.86;38.11
20228;BME280;12195;55.790;37.572;2023-04-25T00:27:48;99530.80;;;14.90;38.13
20228;BME280;12195;55.790;37.572;2023-04-25T00:30:20;99526.75;;;14.97;38.25
20228;BME280;12195;55.790;37.572;2023-04-25T00:32:52;99540.12;;;15.07;38.21
20228;BME280;12195;55.790;37.572;2023-04-25T00:35:25;99537.00;;;15.13;37.98
20228;BME280;12195;55.790;37.572;2023-04-25T00:37:57;99538.57;;;15.15;37.92
20228;BME280;12195;55.790;37.572;2023-04-25T00:40:29;99540.13;;;15.18;38.09
20228;BME280;12195;55.790;37.572;2023-04-25T00:43:02;99534.62;;;15.21;38.31
20228;BME280;12195;55.790;37.572;2023-04-25T00:45:36;99534.62;;;15.21;38.31
20228;BME280;12195;55.790;37.572;2023-04-25T00:48:09;99541.59;;;15.22;38.56
20228;BME280;12195;55.790;37.572;2023-04-25T00:50:43;99535.33;;;15.23;38.55
20228;BME280;12195;55.790;37.572;2023-04-25T00:53:15;99536.08;;;15.25;38.65
20228;BME280;12195;55.790;37.572;2023-04-25T00:55:48;99544.72;;;15.27;38.66
20228;BME280;12195;55.790;37.572;2023-04-25T00:58:22;99548.96;;;15.29;39.45
20228;BME280;12195;55.790;37.572;2023-04-25T01:00:56;99553.17;;;15.32;38.20
20228;BME280;12195;55.790;37.572;2023-04-25T01:03:28;99508.42;;;15.29;38.29
20228;BME280;12195;55.790;37.572;2023-04-25T01:06:02;99517.81;;;15.33;36.39
20228;BME280;12195;55.790;37.572;2023-04-25T01:08:35;99501.34;;;15.29;34.95
20228;BME280;12195;55.790;37.572;2023-04-25T01:11:07;99503.61;;;15.34;35.31
20228;BME280;12195;55.790;37.572;2023-04-25T01:13:39;99511.13;;;15.40;36.75
20228;BME280;12195;55.790;37.572;2023-04-25T01:16:12;99517.49;;;15.48;37.24
20228;BME280;12195;55.790;37.572;2023-04-25T01:18:45;99524.23;;;15.52;37.81
20228;BME280;12195;55.790;37.572;2023-04-25T01:21:17;99520.62;;;15.53;38.43
20228;BME280;12195;55.790;37.572;2023-04-25T01:23:50;99525.09;;;15.53;38.84
20228;BME280;12195;55.790;37.572;2023-04-25T01:26:25;99525.20;;;15.51;39.37
20228;BME280;12195;55.790;37.572;2023-04-25T01:28:57;99524.72;;;15.46;39.80
20228;BME280;12195;55.790;37.572;2023-04-25T01:31:30;99521.56;;;15.41;39.95
20228;BME280;12195;55.790;37.572;2023-04-25T01:34:03;99521.20;;;15.35;40.29
20228;BME280;12195;55.790;37.572;2023-04-25T01:36:36;99519.12;;;15.27;40.52
20228;BME280;12195;55.790;37.572;2023-04-25T01:39:08;99526.45;;;15.24;40.72
20228;BME280;12195;55.790;37.572;2023-04-25T01:41:41;99518.75;;;15.21;40.92
20228;BME280;12195;55.790;37.572;2023-04-25T01:44:14;99516.33;;;15.18;41.03
20228;BME280;12195;55.790;37.572;2023-04-25T01:46:46;99512.23;;;15.14;41.11
20228;BME280;12195;55.790;37.572;2023-04-25T01:49:18;99497.55;;;15.10;41.06
20228;BME280;12195;55.790;37.572;2023-04-25T01:51:51;99486.34;;;14.95;41.16
20228;BME280;12195;55.790;37.572;2023-04-25T01:54:24;99505.75;;;15.07;41.24
20228;BME280;12195;55.790;37.572;2023-04-25T01:56:57;99506.57;;;15.07;41.38
20228;BME280;12195;55.790;37.572;2023-04-25T01:59:30;99515.36;;;15.08;41.73
20228;BME280;12195;55.790;37.572;2023-04-25T02:02:21;99511.75;;;15.09;41.44
20228;BME280;12195;55.790;37.572;2023-04-25T02:04:54;99509.84;;;15.11;41.65
20228;BME280;12195;55.790;37.572;2023-04-25T02:07:30;99507.20;;;15.11;41.74
20228;BME280;12195;55.790;37.572;2023-04-25T02:10:03;99506.94;;;15.14;41.65
20228;BME280;12195;55.790;37.572;2023-04-25T02:12:37;99504.07;;;15.17;41.65
20228;BME280;12195;55.790;37.572;2023-04-25T02:15:27;99505.52;;;15.21;41.55
20228;BME280;12195;55.790;37.572;2023-04-25T02:18:02;99506.97;;;15.25;41.67
20228;BME280;12195;55.790;37.572;2023-04-25T02:20:36;99473.04;;;15.19;41.47
20228;BME280;12195;55.790;37.572;2023-04-25T02:23:08;99482.45;;;15.34;41.33
20228;BME280;12195;55.790;37.572;2023-04-25T02:25:40;99482.45;;;15.34;41.33
20228;BME280;12195;55.790;37.572;2023-04-25T02:28:13;99493.69;;;15.37;41.63
20228;BME280;12195;55.790;37.572;2023-04-25T02:30:45;99484.67;;;15.40;41.68
20228;BME280;12195;55.790;37.572;2023-04-25T02:33:18;99493.20;;;15.43;41.29
20228;BME280;12195;55.790;37.572;2023-04-25T02:35:52;99483.95;;;15.49;41.00
20228;BME280;12195;55.790;37.572;2023-04-25T02:38:25;99482.75;;;15.53;40.86
20228;BME280;12195;55.790;37.572;2023-04-25T02:40:59;99491.27;;;15.56;40.98
20228;BME280;12195;55.790;37.572;2023-04-25T02:43:32;99494.39;;;15.61;40.61
20228;BME280;12195;55.790;37.572;2023-04-25T02:46:04;99490.43;;;15.67;40.49
20228;BME280;12195;55.790;37.572;2023-04-25T02:48:36;99471.55;;;15.75;40.28
20228;BME280;12195;55.790;37.572;2023-04-25T02:51:08;99463.61;;;15.71;40.24
20228;BME280;12195;55.790;37.572;2023-04-25T02:53:41;99488.84;;;15.86;40.21
20228;BME280;12195;55.790;37.572;2023-04-25T02:56:13;99493.78;;;15.91;40.15
20228;BME280;12195;55.790;37.572;2023-04-25T02:58:45;99490.52;;;15.98;39.81
20228;BME280;12195;55.790;37.572;2023-04-25T03:01:17;99487.27;;;16.06;39.62
20228;BME280;12195;55.790;37.572;2023-04-25T03:03:50;99497.36;;;16.12;39.27
20228;BME280;12195;55.790;37.572;2023-04-25T03:06:24;99489.64;;;16.20;39.19
20228;BME280;12195;55.790;37.572;2023-04-25T03:08:58;99496.13;;;16.27;39.32
20228;BME280;12195;55.790;37.572;2023-04-25T03:11:31;99489.95;;;16.38;39.22
20228;BME280;12195;55.790;37.572;2023-04-25T03:14:04;99492.28;;;16.42;38.61
20228;BME280;12195;55.790;37.572;2023-04-25T03:16:36;99492.98;;;16.44;38.99
20228;BME280;12195;55.790;37.572;2023-04-25T03:19:09;99492.13;;;16.44;38.62
20228;BME280;12195;55.790;37.572;2023-04-25T03:21:41;99495.75;;;16.43;39.69
20228;BME280;12195;55.790;37.572;2023-04-25T03:24:15;99495.75;;;16.43;39.69
20228;BME280;12195;55.790;37.572;2023-04-25T03:26:47;99499.25;;;16.43;39.27
20228;BME280;12195;55.790;37.572;2023-04-25T03:29:19;99491.42;;;16.42;39.31
20228;BME280;12195;55.790;37.572;2023-04-25T03:31:54;99498.98;;;16.46;39.33
20228;BME280;12195;55.790;37.572;2023-04-25T03:34:26;99498.86;;;16.48;39.07
20228;BME280;12195;55.790;37.572;2023-04-25T03:36:59;99501.39;;;16.49;38.89
20228;BME280;12195;55.790;37.572;2023-04-25T03:39:32;99505.47;;;16.53;38.82
20228;BME280;12195;55.790;37.572;2023-04-25T03:42:04;99509.48;;;16.79;38.52
20228;BME280;12195;55.790;37.572;2023-04-25T03:44:36;99509.48;;;16.79;38.52
20228;BME280;12195;55.790;37.572;2023-04-25T03:47:09;99504.55;;;16.95;38.37
20228;BME280;12195;55.790;37.572;2023-04-25T03:49:41;99504.70;;;17.14;37.92
20228;BME280;12195;55.790;37.572;2023-04-25T03:52:15;99494.72;;;17.27;37.41
20228;BME280;12195;55.790;37.572;2023-04-25T03:54:47;99498.03;;;17.40;37.35
20228;BME280;12195;55.790;37.572;2023-04-25T03:57:21;99504.07;;;17.42;37.33
20228;BME280;12195;55.790;37.572;2023-04-25T03:59:53;99507.70;;;17.41;37.34
20228;BME280;12195;55.790;37.572;2023-04-25T04:02:26;99500.56;;;17.42;37.62
20228;BME280;12195;55.790;37.572;2023-04-25T04:05:00;99487.80;;;17.36;37.63
20228;BME280;12195;55.790;37.572;2023-04-25T04:07:34;99490.83;;;17.31;37.67
20228;BME280;12195;55.790;37.572;2023-04-25T04:10:11;99488.72;;;17.25;38.01
20228;BME280;12195;55.790;37.572;2023-04-25T04:12:44;99489.95;;;17.21;38.37
20228;BME280;12195;55.790;37.572;2023-04-25T04:15:16;99494.66;;;17.18;38.50
20228;BME280;12195;55.790;37.572;2023-04-25T04:17:51;99495.77;;;17.15;38.63
20228;BME280;12195;55.790;37.572;2023-04-25T04:20:24;99497.84;;;17.12;38.74
20228;BME280;12195;55.790;37.572;2023-04-25T04:22:57;99494.62;;;17.08;39.10
20228;BME280;12195;55.790;37.572;2023-04-25T04:25:29;99500.55;;;17.01;39.18
20228;BME280;12195;55.790;37.572;2023-04-25T04:28:09;99494.67;;;16.97;39.53
20228;BME280;12195;55.790;37.572;2023-04-25T04:30:43;99500.95;;;16.96;39.56
20228;BME280;12195;55.790;37.572;2023-04-25T04:33:17;99503.61;;;16.96;39.53
20228;BME280;12195;55.790;37.572;2023-04-25T04:35:52;99502.63;;;16.97;39.84
20228;BME280;12195;55.790;37.572;2023-04-25T04:38:26;99507.94;;;16.97;39.80
20228;BME280;12195;55.790;37.572;2023-04-25T04:41:00;99504.06;;;17.01;39.86
20228;BME280;12195;55.790;37.572;2023-04-25T04:43:50;99504.43;;;16.97;40.17
20228;BME280;12195;55.790;37.572;2023-04-25T04:46:28;99505.98;;;16.99;40.44
20228;BME280;12195;55.790;37.572;2023-04-25T04:49:13;99508.39;;;17.02;40.59
20228;BME280;12195;55.790;37.572;2023-04-25T04:51:55;99481.86;;;17.02;40.54
20228;BME280;12195;55.790;37.572;2023-04-25T04:54:34;99481.86;;;17.02;40.54
20228;BME280;12195;55.790;37.572;2023-04-25T04:57:20;99495.38;;;17.20;40.40
20228;BME280;12195;55.790;37.572;2023-04-25T05:00:12;99501.98;;;17.25;40.78
20228;BME280;12195;55.790;37.572;2023-04-25T05:02:58;99491.12;;;17.28;40.60
20228;BME280;12195;55.790;37.572;2023-04-25T05:05:32;99492.25;;;17.35;40.68
20228;BME280;12195;55.790;37.572;2023-04-25T05:08:22;99490.92;;;17.41;40.83
20228;BME280;12195;55.790;37.572;2023-04-25T05:10:59;99486.69;;;17.38;40.21
20228;BME280;12195;55.790;37.572;2023-04-25T05:13:36;99493.51;;;17.52;40.25
20228;BME280;12195;55.790;37.572;2023-04-25T05:16:10;99491.16;;;17.58;40.20
20228;BME280;12195;55.790;37.572;2023-04-25T05:18:56;99492.45;;;17.64;39.38
20228;BME280;12195;55.790;37.572;2023-04-25T05:21:33;99488.98;;;17.73;38.92
20228;BME280;12195;55.790;37.572;2023-04-25T05:24:13;99491.81;;;17.81;38.76
20228;BME280;12195;55.790;37.572;2023-04-25T05:27:03;99480.38;;;17.90;38.11
20228;BME280;12195;55.790;37.572;2023-04-25T05:29:47;99488.51;;;17.98;37.62
20228;BME280;12195;55.790;37.572;2023-04-25T05:32:23;99499.50;;;18.23;36.92
20228;BME280;12195;55.790;37.572;2023-04-25T05:34:57;99490.37;;;18.16;36.96
20228;BME280;12195;55.790;37.572;2023-04-25T05:37:31;99491.39;;;18.25;36.94
20228;BME280;12195;55.790;37.572;2023-04-25T05:40:08;99496.34;;;18.48;36.45
20228;BME280;12195;55.790;37.572;2023-04-25T05:42:49;99494.09;;;18.44;36.37
20228;BME280;12195;55.790;37.572;2023-04-25T05:45:39;99489.50;;;18.55;36.35
20228;BME280;12195;55.790;37.572;2023-04-25T05:48:13;99482.91;;;18.69;36.38
20228;BME280;12195;55.790;37.572;2023-04-25T05:50:47;99484.30;;;18.82;36.06
20228;BME280;12195;55.790;37.572;2023-04-25T05:53:24;99483.31;;;18.83;35.87
20228;BME280;12195;55.790;37.572;2023-04-25T05:55:58;99484.44;;;18.81;36.15
20228;BME280;12195;55.790;37.572;2023-04-25T05:58:32;99474.52;;;18.83;36.19
20228;BME280;12195;55.790;37.572;2023-04-25T06:01:05;99481.10;;;18.88;36.16
20228;BME280;12195;55.790;37.572;2023-04-25T06:03:38;99484.00;;;19.04;36.06
20228;BME280;12195;55.790;37.572;2023-04-25T06:06:13;99468.73;;;19.25;35.91
20228;BME280;12195;55.790;37.572;2023-04-25T06:08:47;99466.97;;;19.53;34.88
20228;BME280;12195;55.790;37.572;2023-04-25T06:11:19;99462.30;;;20.18;33.61
20228;BME280;12195;55.790;37.572;2023-04-25T06:13:52;99455.62;;;21.02;32.01
20228;BME280;12195;55.790;37.572;2023-04-25T06:16:25;99456.61;;;21.78;30.69
20228;BME280;12195;55.790;37.572;2023-04-25T06:18:58;99453.95;;;22.27;29.47
20228;BME280;12195;55.790;37.572;2023-04-25T06:21:30;99447.35;;;22.55;28.97
20228;BME280;12195;55.790;37.572;2023-04-25T06:24:03;99441.81;;;23.05;28.59
20228;BME280;12195;55.790;37.572;2023-04-25T06:26:36;99443.93;;;23.49;27.56
20228;BME280;12195;55.790;37.572;2023-04-25T06:29:09;99431.91;;;23.84;27.28
20228;BME280;12195;55.790;37.572;2023-04-25T06:31:42;99434.03;;;24.35;26.39
20228;BME280;12195;55.790;37.572;2023-04-25T06:34:15;99426.98;;;24.64;25.30
20228;BME280;12195;55.790;37.572;2023-04-25T06:36:47;99416.58;;;24.84;24.83
20228;BME280;12195;55.790;37.572;2023-04-25T06:39:20;99414.66;;;25.07;24.69
20228;BME280;12195;55.790;37.572;2023-04-25T06:41:54;99420.22;;;25.28;24.18
20228;BME280;12195;55.790;37.572;2023-04-25T06:44:33;99414.55;;;25.52;23.99
20228;BME280;12195;55.790;37.572;2023-04-25T06:47:07;99422.33;;;25.91;23.05
20228;BME280;12195;55.790;37.572;2023-04-25T06:49:40;99415.86;;;26.35;22.37
20228;BME280;12195;55.790;37.572;2023-04-25T06:52:13;99419.41;;;26.99;22.05
20228;BME280;12195;55.790;37.572;2023-04-25T06:54:45;99423.84;;;27.34;21.89
20228;BME280;12195;55.790;37.572;2023-04-25T06:57:19;99420.25;;;27.54;21.23
20228;BME280;12195;55.790;37.572;2023-04-25T06:59:52;99421.75;;;27.63;21.39
20228;BME280;12195;55.790;37.572;2023-04-25T07:02:25;99420.97;;;27.14;21.75
20228;BME280;12195;55.790;37.572;2023-04-25T07:04:57;99418.81;;;26.40;22.56
20228;BME280;12195;55.790;37.572;2023-04-25T07:07:31;99427.82;;;25.68;23.23
20228;BME280;12195;55.790;37.572;2023-04-25T07:10:05;99419.30;;;24.98;23.90
20228;BME280;12195;55.790;37.572;2023-04-25T07:12:37;99429.43;;;24.43;24.52
20228;BME280;12195;55.790;37.572;2023-04-25T07:15:10;99423.86;;;23.92;24.72
20228;BME280;12195;55.790;37.572;2023-04-25T07:17:44;99427.36;;;23.46;25.83
20228;BME280;12195;55.790;37.572;2023-04-25T07:20:17;99426.58;;;23.13;26.59
20228;BME280;12195;55.790;37.572;2023-04-25T07:22:49;99429.12;;;22.83;27.10
20228;BME280;12195;55.790;37.572;2023-04-25T07:25:22;99432.44;;;22.61;26.96
20228;BME280;12195;55.790;37.572;2023-04-25T07:27:55;99419.52;;;22.40;27.29
20228;BME280;12195;55.790;37.572;2023-04-25T07:30:29;99427.20;;;22.27;27.72
20228;BME280;12195;55.790;37.572;2023-04-25T07:33:03;99425.98;;;22.14;27.77
20228;BME280;12195;55.790;37.572;2023-04-25T07:35:36;99420.30;;;22.09;28.22
20228;BME280;12195;55.790;37.572;2023-04-25T07:38:11;99421.76;;;21.95;28.42
20228;BME280;12195;55.790;37.572;2023-04-25T07:40:44;99422.20;;;21.83;28.72
20228;BME280;12195;55.790;37.572;2023-04-25T07:43:17;99423.48;;;21.71;29.08
20228;BME280;12195;55.790;37.572;2023-04-25T07:45:51;99416.75;;;21.67;29.21
20228;BME280;12195;55.790;37.572;2023-04-25T07:48:23;99430.25;;;21.91;28.20
20228;BME280;12195;55.790;37.572;2023-04-25T07:50:56;99422.91;;;21.59;28.56
20228;BME280;12195;55.790;37.572;2023-04-25T07:53:29;99422.88;;;21.51;29.52
20228;BME280;12195;55.790;37.572;2023-04-25T07:56:04;99426.05;;;21.47;29.99
20228;BME280;12195;55.790;37.572;2023-04-25T07:58:38;99427.51;;;21.41;30.09
20228;BME280;12195;55.790;37.572;2023-04-25T08:01:12;99427.66;;;21.40;30.18
20228;BME280;12195;55.790;37.572;2023-04-25T08:03:58;99424.14;;;21.39;30.39
20228;BME280;12195;55.790;37.572;2023-04-25T08:06:39;99422.67;;;21.45;29.66
20228;BME280;12195;55.790;37.572;2023-04-25T08:09:17;99427.09;;;21.62;29.00
20228;BME280;12195;55.790;37.572;2023-04-25T08:11:50;99429.06;;;21.77;28.58
20228;BME280;12195;55.790;37.572;2023-04-25T08:14:24;99417.70;;;21.83;28.36
20228;BME280;12195;55.790;37.572;2023-04-25T08:16:57;99427.39;;;21.84;28.55
20228;BME280;12195;55.790;37.572;2023-04-25T08:19:30;99435.09;;;21.87;28.26
20228;BME280;12195;55.790;37.572;2023-04-25T08:22:03;99423.55;;;21.87;28.37
20228;BME280;12195;55.790;37.572;2023-04-25T08:24:37;99428.61;;;21.98;28.71
20228;BME280;12195;55.790;37.572;2023-04-25T08:27:10;99435.05;;;22.21;28.66
20228;BME280;12195;55.790;37.572;2023-04-25T08:29:43;99425.37;;;22.44;27.85
20228;BME280;12195;55.790;37.572;2023-04-25T08:32:18;99420.07;;;22.76;27.43
20228;BME280;12195;55.790;37.572;2023-04-25T08:34:57;99412.52;;;23.03;26.54
20228;BME280;12195;55.790;37.572;2023-04-25T08:37:31;99412.13;;;23.46;26.25
20228;BME280;12195;55.790;37.572;2023-04-25T08:40:06;99412.92;;;24.01;25.90
20228;BME280;12195;55.790;37.572;2023-04-25T08:42:43;99403.14;;;24.39;25.03
20228;BME280;12195;55.790;37.572;2023-04-25T08:45:16;99399.84;;;24.51;24.66
20228;BME280;12195;55.790;37.572;2023-04-25T08:47:51;99407.02;;;24.59;24.90
20228;BME280;12195;55.790;37.572;2023-04-25T08:50:24;99403.55;;;24.50;25.17
20228;BME280;12195;55.790;37.572;2023-04-25T08:52:59;99397.82;;;24.31;25.25
20228;BME280;12195;55.790;37.572;2023-04-25T08:55:34;99405.55;;;24.03;25.03
20228;BME280;12195;55.790;37.572;2023-04-25T08:58:09;99402.14;;;23.71;25.27
20228;BME280;12195;55.790;37.572;2023-04-25T09:00:45;99406.94;;;23.45;25.42
20228;BME280;12195;55.790;37.572;2023-04-25T09:03:18;99393.59;;;23.21;25.48
20228;BME280;12195;55.790;37.572;2023-04-25T09:08:23;99392.97;;;22.79;27.49
20228;BME280;12195;55.790;37.572;2023-04-25T09:10:56;99393.98;;;22.62;27.50
20228;BME280;12195;55.790;37.572;2023-04-25T09:13:29;99380.59;;;22.54;27.80
20228;BME280;12195;55.790;37.572;2023-04-25T09:16:06;99376.06;;;22.54;28.30
20228;BME280;12195;55.790;37.572;2023-04-25T09:18:49;99376.91;;;22.55;27.28
20228;BME280;12195;55.790;37.572;2023-04-25T09:21:22;99373.38;;;22.62;27.48
20228;BME280;12195;55.790;37.572;2023-04-25T09:23:56;99375.24;;;22.62;26.52
20228;BME280;12195;55.790;37.572;2023-04-25T09:26:31;99366.84;;;22.73;27.03
20228;BME280;12195;55.790;37.572;2023-04-25T09:29:07;99369.36;;;22.82;26.98
20228;BME280;12195;55.790;37.572;2023-04-25T09:34:12;99364.60;;;23.24;26.76
20228;BME280;12195;55.790;37.572;2023-04-25T09:36:49;99364.72;;;23.39;26.45
20228;BME280;12195;55.790;37.572;2023-04-25T09:39:29;99349.12;;;23.50;26.57
20228;BME280;12195;55.790;37.572;2023-04-25T09:42:04;99350.88;;;23.66;26.55
20228;BME280;12195;55.790;37.572;2023-04-25T09:44:41;99360.55;;;23.75;26.67
20228;BME280;12195;55.790;37.572;2023-04-25T09:47:15;99361.98;;;23.93;26.32
20228;BME280;12195;55.790;37.572;2023-04-25T09:49:49;99354.02;;;24.08;26.22
20228;BME280;12195;55.790;37.572;2023-04-25T09:52:25;99349.27;;;24.18;26.13
20228;BME280;12195;55.790;37.572;2023-04-25T09:54:59;99351.78;;;24.19;25.87
20228;BME280;12195;55.790;37.572;2023-04-25T09:57:34;99356.77;;;24.22;25.54
20228;BME280;12195;55.790;37.572;2023-04-25T10:00:10;99352.25;;;24.23;25.71
20228;BME280;12195;55.790;37.572;2023-04-25T10:02:46;99346.98;;;24.07;26.00
20228;BME280;12195;55.790;37.572;2023-04-25T10:05:21;99350.45;;;23.93;26.32
20228;BME280;12195;55.790;37.572;2023-04-25T10:08:14;99338.92;;;23.76;26.68
20228;BME280;12195;55.790;37.572;2023-04-25T10:10:47;99343.52;;;23.68;26.01
20228;BME280;12195;55.790;37.572;2023-04-25T10:13:22;99341.03;;;23.97;25.89
20228;BME280;12195;55.790;37.572;2023-04-25T10:16:00;99327.51;;;23.82;25.87
20228;BME280;12195;55.790;37.572;2023-04-25T10:18:33;99329.28;;;23.98;25.33
20228;BME280;12195;55.790;37.572;2023-04-25T10:21:06;99334.42;;;24.07;25.39
20228;BME280;12195;55.790;37.572;2023-04-25T10:23:39;99323.02;;;24.28;25.54
20228;BME280;12195;55.790;37.572;2023-04-25T10:26:11;99323.73;;;24.44;24.98
20228;BME280;12195;55.790;37.572;2023-04-25T10:28:59;99320.80;;;24.54;24.67
20228;BME280;12195;55.790;37.572;2023-04-25T10:31:32;99320.30;;;24.73;24.51
20228;BME280;12195;55.790;37.572;2023-04-25T10:34:05;99306.98;;;24.94;24.77
20228;BME280;12195;55.790;37.572;2023-04-25T10:36:38;99308.37;;;25.04;24.45
20228;BME280;12195;55.790;37.572;2023-04-25T10:39:10;99310.16;;;25.12;24.24
20228;BME280;12195;55.790;37.572;2023-04-25T10:41:47;99302.55;;;25.16;24.04
20228;BME280;12195;55.790;37.572;2023-04-25T10:44:19;99295.78;;;25.05;24.02
20228;BME280;12195;55.790;37.572;2023-04-25T10:46:52;99290.31;;;24.98;23.66
20228;BME280;12195;55.790;37.572;2023-04-25T10:54:57;99298.91;;;25.52;23.79
20228;BME280;12195;55.790;37.572;2023-04-25T10:57:45;99280.88;;;25.32;22.31
20228;BME280;12195;55.790;37.572;2023-04-25T11:00:20;99275.05;;;25.28;22.30
20228;BME280;12195;55.790;37.572;2023-04-25T11:03:00;99277.14;;;25.18;23.50
20228;BME280;12195;55.790;37.572;2023-04-25T11:05:35;99272.98;;;25.01;22.81
20228;BME280;12195;55.790;37.572;2023-04-25T11:08:12;99279.66;;;25.05;23.24
20228;BME280;12195;55.790;37.572;2023-04-25T11:10:47;99273.26;;;24.91;23.63
20228;BME280;12195;55.790;37.572;2023-04-25T11:13:21;99278.72;;;24.98;23.60
20228;BME280;12195;55.790;37.572;2023-04-25T11:15:53;99275.01;;;24.99;23.02
20228;BME280;12195;55.790;37.572;2023-04-25T11:18:28;99262.23;;;25.01;22.83
20228;BME280;12195;55.790;37.572;2023-04-25T11:21:02;99257.13;;;25.06;22.18
20228;BME280;12195;55.790;37.572;2023-04-25T11:23:34;99258.33;;;25.18;21.86
20228;BME280;12195;55.790;37.572;2023-04-25T11:26:07;99254.99;;;25.45;21.56
20228;BME280;12195;55.790;37.572;2023-04-25T11:28:40;99248.95;;;25.43;20.92
20228;BME280;12195;55.790;37.572;2023-04-25T11:31:12;99253.41;;;25.51;21.25
20228;BME280;12195;55.790;37.572;2023-04-25T11:33:45;99246.77;;;25.68;21.67
20228;BME280;12195;55.790;37.572;2023-04-25T11:36:18;99240.98;;;25.71;21.56
20228;BME280;12195;55.790;37.572;2023-04-25T11:38:51;99238.22;;;25.64;21.92
20228;BME280;12195;55.790;37.572;2023-04-25T11:41:24;99238.45;;;25.48;22.24
20228;BME280;12195;55.790;37.572;2023-04-25T11:43:57;99237.27;;;25.51;22.28
20228;BME280;12195;55.790;37.572;2023-04-25T11:46:30;99233.75;;;25.71;22.50
20228;BME280;12195;55.790;37.572;2023-04-25T11:49:03;99224.02;;;25.91;21.82
20228;BME280;12195;55.790;37.572;2023-04-25T11:51:40;99219.45;;;26.06;21.54
20228;BME280;12195;55.790;37.572;2023-04-25T11:54:13;99219.17;;;26.22;21.00
20228;BME280;12195;55.790;37.572;2023-04-25T11:56:46;99211.91;;;26.50;20.92
20228;BME280;12195;55.790;37.572;2023-04-25T11:59:22;99210.02;;;26.72;20.34
20228;BME280;12195;55.790;37.572;2023-04-25T12:01:54;99199.56;;;26.90;21.39
20228;BME280;12195;55.790;37.572;2023-04-25T12:04:30;99203.60;;;27.13;20.80
20228;BME280;12195;55.790;37.572;2023-04-25T12:07:05;99188.94;;;27.22;20.47
20228;BME280;12195;55.790;37.572;2023-04-25T12:09:40;99196.69;;;27.45;20.62
20228;BME280;12195;55.790;37.572;2023-04-25T12:12:12;99186.98;;;27.63;20.65
20228;BME280;12195;55.790;37.572;2023-04-25T12:14:46;99190.58;;;27.96;20.61
20228;BME280;12195;55.790;37.572;2023-04-25T12:17:19;99189.36;;;28.44;20.12
20228;BME280;12195;55.790;37.572;2023-04-25T12:19:51;99184.41;;;29.11;19.61
20228;BME280;12195;55.790;37.572;2023-04-25T12:22:24;99167.78;;;29.83;18.84
20228;BME280;12195;55.790;37.572;2023-04-25T12:24:57;99159.91;;;30.31;18.35
20228;BME280;12195;55.790;37.572;2023-04-25T12:27:34;99163.61;;;30.79;17.94
20228;BME280;12195;55.790;37.572;2023-04-25T12:30:08;99158.52;;;31.18;17.52
20228;BME280;12195;55.790;37.572;2023-04-25T12:32:42;99156.38;;;30.91;17.54
20228;BME280;12195;55.790;37.572;2023-04-25T12:35:14;99157.61;;;30.52;17.99
20228;BME280;12195;55.790;37.572;2023-04-25T12:37:46;99151.36;;;30.03;18.48
20228;BME280;12195;55.790;37.572;2023-04-25T12:40:19;99145.42;;;29.63;18.50
20228;BME280;12195;55.790;37.572;2023-04-25T12:42:51;99140.08;;;29.12;19.20
20228;BME280;12195;55.790;37.572;2023-04-25T12:45:23;99146.91;;;28.64;19.73
20228;BME280;12195;55.790;37.572;2023-04-25T12:47:56;99139.25;;;28.35;20.09
20228;BME280;12195;55.790;37.572;2023-04-25T12:50:29;99140.52;;;28.07;20.12
20228;BME280;12195;55.790;37.572;2023-04-25T12:53:02;99135.73;;;27.89;20.37
20228;BME280;12195;55.790;37.572;2023-04-25T12:55:34;99129.10;;;28.11;20.31
20228;BME280;12195;55.790;37.572;2023-04-25T12:58:06;99128.86;;;28.45;20.04
20228;BME280;12195;55.790;37.572;2023-04-25T13:00:39;99121.84;;;29.01;19.56
20228;BME280;12195;55.790;37.572;2023-04-25T13:03:11;99114.28;;;29.48;19.18
20228;BME280;12195;55.790;37.572;2023-04-25T13:05:44;99102.30;;;29.93;18.92
20228;BME280;12195;55.790;37.572;2023-04-25T13:08:17;99105.27;;;30.34;18.37
20228;BME280;12195;55.790;37.572;2023-04-25T13:10:50;99096.17;;;30.82;17.82
20228;BME280;12195;55.790;37.572;2023-04-25T13:13:22;99092.92;;;31.51;17.38
20228;BME280;12195;55.790;37.572;2023-04-25T13:15:54;99081.84;;;32.05;17.10
20228;BME280;12195;55.790;37.572;2023-04-25T13:18:26;99080.64;;;32.47;16.66
20228;BME280;12195;55.790;37.572;2023-04-25T13:21:00;99083.60;;;32.96;16.31
20228;BME280;12195;55.790;37.572;2023-04-25T13:23:32;99068.74;;;33.44;15.56
20228;BME280;12195;55.790;37.572;2023-04-25T13:26:05;99075.52;;;33.41;15.55
20228;BME280;12195;55.790;37.572;2023-04-25T13:28:38;99081.72;;;32.46;16.31
20228;BME280;12195;55.790;37.572;2023-04-25T13:31:13;99085.68;;;32.66;16.97
20228;BME280;12195;55.790;37.572;2023-04-25T13:33:45;99081.09;;;30.32;18.27
20228;BME280;12195;55.790;37.572;2023-04-25T13:36:17;99076.84;;;29.07;19.38
20228;BME280;12195;55.790;37.572;2023-04-25T13:38:50;99078.19;;;28.15;20.18